Time;durP1;ratioP1;P1;durP2;ratioP2;P2;SDS_P1;SDS_P2;PMS_P1;PMS_P2;Temp;Humidity;BMP_temperature;BMP_pressure;BME280_temperature;BME280_humidity;BME280_pressure;Samples;Min_cycle;Max_cycle;Signal;HPM_P1;HPM_P2
2023/12/08 00:02:14;;;;;;;2.00;1.20;;;;;;;;;;5099565;28;20128;-74
2023/12/08 00:05:54;;;;;;;1.77;0.95;;;;;;;;;;5095940;28;20339;-73
2023/12/08 00:09:35;;;;;;;2.58;1.02;;;;;;;;;;5089969;28;20113;-70
2023/12/08 00:13:16;;;;;;;2.00;1.20;;;;;;;;;;5101788;28;20628;-72
2023/12/08 00:16:58;;;;;;;1.65;1.10;;;;;;;;;;5101912;28;20392;-74
2023/12/08 00:20:40;;;;;;;1.23;1.10;;;;;;;;;;5103818;28;20097;-74
2023/12/08 00:24:21;;;;;;;1.20;1.00;;;;;;;;;;5097962;28;20407;-74
2023/12/08 00:28:03;;;;;;;1.77;1.10;;;;;;;;;;5101148;28;20098;-70
2023/12/08 00:31:42;;;;;;;1.30;1.00;;;;;;;;;;5101803;28;20040;-72
2023/12/08 00:35:23;;;;;;;2.00;1.30;;;;;;;;;;5095091;28;20044;-72
2023/12/08 00:39:03;;;;;;;1.25;1.00;;;;;;;;;;5105629;28;20044;-73
2023/12/08 00:42:44;;;;;;;1.17;0.90;;;;;;;;;;5107855;28;20059;-71
2023/12/08 00:46:25;;;;;;;2.58;0.90;;;;;;;;;;5104925;28;20688;-70
2023/12/08 00:50:07;;;;;;;1.20;1.00;;;;;;;;;;5101094;28;20044;-73
2023/12/08 00:53:47;;;;;;;2.08;1.08;;;;;;;;;;5101498;27;20043;-72
2023/12/08 00:57:28;;;;;;;1.45;0.70;;;;;;;;;;5099386;28;20083;-71
2023/12/08 01:01:11;;;;;;;0.60;0.60;;;;;;;;;;5092509;28;20085;-74
2023/12/08 01:04:51;;;;;;;0.73;0.70;;;;;;;;;;5097086;27;20051;-73
2023/12/08 01:08:31;;;;;;;0.70;0.70;;;;;;;;;;5100267;28;20051;-73
2023/12/08 01:12:12;;;;;;;1.38;0.88;;;;;;;;;;5103621;28;20063;-74
2023/12/08 01:15:53;;;;;;;0.95;0.68;;;;;;;;;;5091262;28;20560;-73
2023/12/08 01:19:33;;;;;;;3.08;0.75;;;;;;;;;;5089462;28;20460;-73
2023/12/08 01:23:14;;;;;;;2.20;0.70;;;;;;;;;;5096222;27;20075;-72
2023/12/08 01:26:55;;;;;;;0.70;0.70;;;;;;;;;;5098205;28;20074;-71
2023/12/08 01:30:35;;;;;;;0.65;0.50;;;;;;;;;;5099203;28;20427;-72
2023/12/08 01:34:16;;;;;;;1.48;0.73;;;;;;;;;;5103099;27;20527;-73
2023/12/08 01:37:57;;;;;;;1.10;0.90;;;;;;;;;;5097948;28;20052;-72
2023/12/08 01:41:39;;;;;;;1.65;0.80;;;;;;;;;;5101839;28;20043;-72
2023/12/08 01:45:19;;;;;;;1.27;0.80;;;;;;;;;;5099928;28;20047;-73
2023/12/08 01:49:01;;;;;;;0.80;0.70;;;;;;;;;;5098324;27;20036;-72
2023/12/08 01:52:42;;;;;;;0.90;0.80;;;;;;;;;;5094599;27;20399;-73
2023/12/08 01:56:23;;;;;;;1.00;0.90;;;;;;;;;;5092341;28;20036;-73
2023/12/08 02:00:03;;;;;;;1.77;0.90;;;;;;;;;;5104895;28;20078;-73
2023/12/08 02:03:48;;;;;;;0.88;0.77;;;;;;;;;;5093651;27;20059;-73
2023/12/08 02:12:42;;;;;;;1.25;1.13;;;;;;;;;;5463191;23;20067;-60
2023/12/08 02:15:11;;;;;;;1.90;1.20;;;;;;;;;;4913208;29;20044;-60
2023/12/08 02:17:38;;;;;;;1.15;1.05;;;;;;;;;;4904198;29;20052;-60
2023/12/08 02:20:09;;;;;;;2.08;1.10;;;;;;;;;;4899999;29;20056;-61
2023/12/08 02:22:35;;;;;;;1.58;1.10;;;;;;;;;;4900606;29;20051;-64
2023/12/08 02:25:02;;;;;;;1.50;1.13;;;;;;;;;;4910555;29;20100;-63
2023/12/08 02:27:29;;;;;;;1.40;1.08;;;;;;;;;;4908789;29;20503;-59
2023/12/08 02:29:55;;;;;;;1.63;1.05;;;;;;;;;;4917413;29;20052;-60
2023/12/08 02:32:40;;;;;;;1.20;1.05;;;;;;;;;;4908267;29;20435;-60
2023/12/08 02:35:08;;;;;;;2.42;1.10;;;;;;;;;;4906401;29;20056;-61
2023/12/08 02:37:41;;;;;;;1.45;1.20;;;;;;;;;;4916801;29;20292;-60
2023/12/08 02:40:09;;;;;;;3.38;1.10;;;;;;;;;;4916789;29;20091;-61
2023/12/08 02:42:36;;;;;;;1.00;0.90;;;;;;;;;;4897850;29;20079;-60
2023/12/08 02:45:03;;;;;;;1.40;1.10;;;;;;;;;;4901247;29;20416;-61
2023/12/08 02:47:29;;;;;;;1.90;1.10;;;;;;;;;;4902358;29;20135;-59
2023/12/08 02:49:57;;;;;;;1.40;1.10;;;;;;;;;;4914585;29;20492;-61
2023/12/08 02:52:23;;;;;;;1.33;1.20;;;;;;;;;;4904155;29;20115;-59
2023/12/08 02:54:49;;;;;;;2.38;1.48;;;;;;;;;;4911261;29;20040;-60
2023/12/08 02:57:15;;;;;;;3.35;1.23;;;;;;;;;;4908001;29;20048;-60
2023/12/08 02:59:41;;;;;;;1.95;1.20;;;;;;;;;;4905859;29;20056;-61
2023/12/08 03:02:07;;;;;;;1.52;1.10;;;;;;;;;;4898194;29;20465;-61
2023/12/08 03:04:33;;;;;;;2.13;1.48;;;;;;;;;;4908515;29;20420;-60
2023/12/08 03:06:59;;;;;;;1.65;1.30;;;;;;;;;;4909472;29;20130;-60
2023/12/08 03:09:25;;;;;;;3.10;1.35;;;;;;;;;;4905132;29;20125;-60
2023/12/08 03:11:52;;;;;;;2.10;1.00;;;;;;;;;;4896024;29;20056;-60
2023/12/08 03:14:19;;;;;;;1.55;1.00;;;;;;;;;;4902871;29;20065;-60
2023/12/08 03:16:49;;;;;;;1.23;0.85;;;;;;;;;;4910177;29;20112;-58
2023/12/08 03:19:16;;;;;;;1.73;1.10;;;;;;;;;;4907064;29;20092;-59
2023/12/08 03:21:42;;;;;;;1.63;1.00;;;;;;;;;;4914186;29;20424;-59
2023/12/08 03:24:08;;;;;;;2.97;0.90;;;;;;;;;;4916860;29;20107;-62
2023/12/08 03:26:34;;;;;;;1.20;1.00;;;;;;;;;;4909526;29;20139;-59
2023/12/08 03:29:00;;;;;;;1.30;1.00;;;;;;;;;;4897773;29;20037;-61
2023/12/08 03:31:34;;;;;;;2.08;1.25;;;;;;;;;;4907862;29;20066;-59
2023/12/08 03:34:06;;;;;;;1.80;1.10;;;;;;;;;;4901604;29;20056;-59
2023/12/08 03:36:32;;;;;;;2.33;1.25;;;;;;;;;;4908133;29;20070;-61
2023/12/08 03:38:59;;;;;;;1.20;1.00;;;;;;;;;;4911967;29;20535;-61
2023/12/08 03:41:25;;;;;;;1.50;1.20;;;;;;;;;;4900474;29;20500;-59
2023/12/08 03:43:52;;;;;;;1.35;1.20;;;;;;;;;;4902402;29;20548;-60
2023/12/08 03:46:18;;;;;;;1.10;1.00;;;;;;;;;;4908478;29;20053;-59
2023/12/08 03:48:44;;;;;;;1.30;1.10;;;;;;;;;;4906626;29;20056;-61
2023/12/08 03:51:10;;;;;;;1.40;1.10;;;;;;;;;;4895209;29;20059;-61
2023/12/08 03:53:37;;;;;;;1.17;0.98;;;;;;;;;;4898138;29;20044;-59
2023/12/08 03:56:03;;;;;;;1.85;1.10;;;;;;;;;;4899750;29;20045;-61
2023/12/08 03:58:29;;;;;;;1.45;1.10;;;;;;;;;;4904094;29;20064;-60
2023/12/08 04:00:55;;;;;;;1.27;1.10;;;;;;;;;;4904702;29;20048;-60
2023/12/08 04:03:22;;;;;;;1.50;1.10;;;;;;;;;;4915717;29;20051;-61
2023/12/08 04:05:48;;;;;;;3.17;1.00;;;;;;;;;;4903771;29;20144;-59
2023/12/08 04:08:15;;;;;;;1.17;1.08;;;;;;;;;;4899130;29;20523;-60
2023/12/08 04:10:42;;;;;;;1.10;1.00;;;;;;;;;;4915204;29;20059;-60
2023/12/08 04:13:08;;;;;;;1.63;1.10;;;;;;;;;;4904942;29;20060;-59
2023/12/08 04:15:34;;;;;;;1.75;1.08;;;;;;;;;;4911642;29;20139;-60
2023/12/08 04:18:00;;;;;;;1.10;1.00;;;;;;;;;;4906043;29;20099;-63
2023/12/08 04:20:26;;;;;;;1.60;1.08;;;;;;;;;;4898174;29;20053;-61
2023/12/08 04:22:52;;;;;;;1.40;1.10;;;;;;;;;;4901066;29;20452;-60
2023/12/08 04:25:18;;;;;;;1.20;0.90;;;;;;;;;;4907447;29;20057;-60
2023/12/08 04:27:44;;;;;;;1.27;1.02;;;;;;;;;;4911783;29;20412;-59
2023/12/08 04:30:10;;;;;;;1.25;1.05;;;;;;;;;;4899779;29;20131;-59
2023/12/08 04:32:36;;;;;;;1.38;1.02;;;;;;;;;;4907142;29;20067;-60
2023/12/08 04:35:02;;;;;;;0.93;0.93;;;;;;;;;;4910300;29;20052;-60
2023/12/08 04:37:28;;;;;;;1.33;0.95;;;;;;;;;;4915362;29;20059;-60
2023/12/08 04:39:54;;;;;;;1.25;0.93;;;;;;;;;;4904592;29;20061;-61
2023/12/08 04:42:20;;;;;;;1.60;1.10;;;;;;;;;;4908466;29;20053;-59
2023/12/08 04:44:46;;;;;;;1.83;1.15;;;;;;;;;;4907821;29;20078;-60
2023/12/08 04:47:12;;;;;;;2.90;1.15;;;;;;;;;;4898235;29;20420;-59
2023/12/08 04:49:38;;;;;;;1.30;1.00;;;;;;;;;;4913113;29;20067;-60
2023/12/08 04:52:04;;;;;;;0.93;0.82;;;;;;;;;;4905059;29;20143;-59
2023/12/08 04:54:30;;;;;;;1.20;1.00;;;;;;;;;;4918242;29;20450;-62
2023/12/08 04:56:56;;;;;;;2.25;1.00;;;;;;;;;;4906319;29;20062;-61
2023/12/08 04:59:23;;;;;;;1.23;1.05;;;;;;;;;;4909084;29;20138;-59
2023/12/08 05:01:50;;;;;;;1.67;1.10;;;;;;;;;;4914102;29;20052;-61
2023/12/08 05:04:19;;;;;;;1.15;0.93;;;;;;;;;;4909385;29;20084;-61
2023/12/08 05:06:48;;;;;;;1.17;0.90;;;;;;;;;;4907155;29;20115;-59
2023/12/08 05:09:14;;;;;;;1.05;0.95;;;;;;;;;;4904573;29;20420;-61
2023/12/08 05:11:41;;;;;;;0.90;0.80;;;;;;;;;;4907267;29;20578;-61
2023/12/08 05:14:07;;;;;;;1.10;0.90;;;;;;;;;;4912705;29;20059;-62
2023/12/08 05:16:33;;;;;;;0.93;0.70;;;;;;;;;;4910619;29;20056;-62
2023/12/08 05:18:59;;;;;;;2.78;0.85;;;;;;;;;;4913895;29;20123;-60
2023/12/08 05:21:25;;;;;;;1.48;0.70;;;;;;;;;;4902622;29;20500;-60
2023/12/08 05:23:50;;;;;;;1.33;0.80;;;;;;;;;;4905793;29;20091;-61
2023/12/08 05:26:18;;;;;;;0.85;0.75;;;;;;;;;;4897335;29;20060;-62
2023/12/08 05:28:45;;;;;;;0.65;0.60;;;;;;;;;;4906815;29;20056;-60
2023/12/08 05:31:13;;;;;;;0.70;0.70;;;;;;;;;;4906202;29;20056;-60
2023/12/08 05:33:39;;;;;;;0.60;0.60;;;;;;;;;;4908974;29;20116;-59
2023/12/08 05:36:07;;;;;;;0.52;0.52;;;;;;;;;;4910031;29;20508;-60
2023/12/08 05:38:33;;;;;;;1.17;0.73;;;;;;;;;;4909245;29;20056;-60
2023/12/08 05:41:03;;;;;;;1.23;0.80;;;;;;;;;;4907798;29;20444;-60
2023/12/08 05:43:29;;;;;;;0.88;0.60;;;;;;;;;;4911392;29;20045;-61
2023/12/08 05:45:55;;;;;;;0.68;0.50;;;;;;;;;;4907852;29;20078;-61
2023/12/08 05:48:21;;;;;;;0.50;0.50;;;;;;;;;;4906156;29;20048;-59
2023/12/08 05:50:47;;;;;;;0.50;0.50;;;;;;;;;;4905083;29;20415;-61
2023/12/08 05:53:13;;;;;;;3.03;0.63;;;;;;;;;;4909806;29;20154;-63
2023/12/08 05:55:43;;;;;;;0.57;0.50;;;;;;;;;;4897526;29;20057;-59
2023/12/08 05:58:10;;;;;;;1.52;0.90;;;;;;;;;;4907395;29;20075;-61
2023/12/08 06:00:38;;;;;;;0.93;0.60;;;;;;;;;;4898744;29;20076;-59
2023/12/08 06:03:04;;;;;;;0.63;0.50;;;;;;;;;;4910621;29;20056;-62
2023/12/08 06:05:30;;;;;;;0.40;0.40;;;;;;;;;;4908634;29;20076;-61
2023/12/08 06:07:56;;;;;;;0.63;0.50;;;;;;;;;;4903206;29;20093;-60
2023/12/08 06:10:23;;;;;;;0.75;0.45;;;;;;;;;;4905742;29;20052;-60
2023/12/08 06:12:49;;;;;;;1.55;0.50;;;;;;;;;;4904536;29;20056;-61
2023/12/08 06:15:15;;;;;;;0.90;0.50;;;;;;;;;;4904543;29;20404;-59
2023/12/08 06:17:41;;;;;;;0.50;0.50;;;;;;;;;;4903174;29;20118;-61
2023/12/08 06:20:10;;;;;;;0.38;0.35;;;;;;;;;;4903380;29;20053;-60
2023/12/08 06:22:37;;;;;;;0.88;0.60;;;;;;;;;;4907427;29;20061;-61
2023/12/08 06:25:03;;;;;;;0.52;0.47;;;;;;;;;;4902111;29;20045;-60
2023/12/08 06:27:30;;;;;;;0.50;0.50;;;;;;;;;;4898818;29;20497;-60
2023/12/08 06:29:57;;;;;;;0.40;0.40;;;;;;;;;;4897286;29;20565;-60
2023/12/08 06:32:26;;;;;;;0.90;0.55;;;;;;;;;;4904394;29;20045;-61
2023/12/08 06:34:55;;;;;;;0.50;0.40;;;;;;;;;;4908621;29;20065;-59
2023/12/08 06:37:21;;;;;;;0.75;0.60;;;;;;;;;;4914847;29;20107;-60
2023/12/08 06:39:47;;;;;;;1.58;0.70;;;;;;;;;;4907725;29;20056;-60
2023/12/08 06:42:13;;;;;;;1.33;0.50;;;;;;;;;;4917212;29;20052;-60
2023/12/08 06:44:40;;;;;;;0.65;0.65;;;;;;;;;;4914689;29;20451;-61
2023/12/08 06:47:06;;;;;;;0.77;0.55;;;;;;;;;;4881591;29;20199;-59
2023/12/08 06:49:33;;;;;;;0.70;0.50;;;;;;;;;;4911398;29;20088;-61
2023/12/08 06:52:00;;;;;;;0.80;0.60;;;;;;;;;;4917913;29;20048;-62
2023/12/08 06:54:27;;;;;;;1.02;0.47;;;;;;;;;;4916494;29;20056;-60
2023/12/08 06:56:53;;;;;;;1.05;0.60;;;;;;;;;;4915146;29;20083;-58
2023/12/08 06:59:19;;;;;;;0.68;0.60;;;;;;;;;;4911365;29;20552;-60
2023/12/08 07:01:45;;;;;;;2.38;0.90;;;;;;;;;;4911739;29;20055;-60
2023/12/08 07:04:12;;;;;;;1.63;0.80;;;;;;;;;;4907630;29;20432;-61
2023/12/08 07:06:39;;;;;;;4.18;0.80;;;;;;;;;;4905929;29;20048;-63
2023/12/08 07:09:06;;;;;;;0.70;0.50;;;;;;;;;;4922810;29;20064;-61
2023/12/08 07:11:33;;;;;;;0.60;0.60;;;;;;;;;;4917523;29;20044;-62
2023/12/08 07:14:03;;;;;;;0.73;0.50;;;;;;;;;;4899711;29;20060;-61
2023/12/08 07:16:29;;;;;;;0.85;0.60;;;;;;;;;;4904209;29;20052;-60
2023/12/08 07:18:55;;;;;;;0.52;0.52;;;;;;;;;;4906432;29;20423;-61
2023/12/08 07:21:21;;;;;;;1.40;0.70;;;;;;;;;;4908207;29;20458;-61
2023/12/08 07:23:47;;;;;;;0.95;0.50;;;;;;;;;;4877423;29;20204;-60
2023/12/08 07:26:13;;;;;;;0.68;0.50;;;;;;;;;;4901051;29;20572;-62
2023/12/08 07:28:39;;;;;;;2.00;0.60;;;;;;;;;;4904597;29;20059;-60
2023/12/08 07:31:05;;;;;;;3.65;2.40;;;;;;;;;;4904823;29;20045;-60
2023/12/08 07:33:32;;;;;;;3.75;1.48;;;;;;;;;;4912780;29;20052;-61
2023/12/08 07:35:58;;;;;;;0.93;0.75;;;;;;;;;;4907847;29;20702;-61
2023/12/08 07:38:24;;;;;;;3.78;0.98;;;;;;;;;;4902818;29;20123;-69
2023/12/08 07:40:50;;;;;;;1.52;0.80;;;;;;;;;;4909386;29;20060;-59
2023/12/08 07:43:16;;;;;;;0.60;0.60;;;;;;;;;;4906899;29;20565;-63
2023/12/08 07:45:43;;;;;;;1.10;0.80;;;;;;;;;;4906482;29;20064;-63
2023/12/08 07:48:09;;;;;;;0.82;0.60;;;;;;;;;;4902321;29;20131;-62
2023/12/08 07:50:36;;;;;;;1.17;0.63;;;;;;;;;;4905033;29;20493;-62
2023/12/08 07:53:04;;;;;;;2.00;0.75;;;;;;;;;;4894830;29;20053;-65
2023/12/08 07:55:30;;;;;;;0.98;0.50;;;;;;;;;;4904432;29;20134;-64
2023/12/08 07:57:56;;;;;;;0.88;0.60;;;;;;;;;;4899999;29;20087;-60
2023/12/08 08:00:22;;;;;;;0.52;0.50;;;;;;;;;;4919668;29;20076;-63
2023/12/08 08:02:48;;;;;;;1.13;0.60;;;;;;;;;;4900427;29;20056;-63
2023/12/08 08:05:14;;;;;;;0.85;0.55;;;;;;;;;;4898458;29;20060;-64
2023/12/08 08:07:41;;;;;;;0.70;0.38;;;;;;;;;;4902023;29;22527;-65
2023/12/08 08:10:09;;;;;;;0.43;0.30;;;;;;;;;;4912651;29;20149;-66
2023/12/08 08:12:39;;;;;;;0.38;0.35;;;;;;;;;;4900578;29;20061;-61
2023/12/08 08:15:08;;;;;;;0.90;0.50;;;;;;;;;;4903593;29;20059;-62
2023/12/08 08:17:36;;;;;;;0.60;0.40;;;;;;;;;;4894948;29;20049;-63
2023/12/08 08:20:03;;;;;;;2.13;0.60;;;;;;;;;;4898213;29;20045;-63
2023/12/08 08:22:30;;;;;;;0.73;0.57;;;;;;;;;;4909185;29;20056;-63
2023/12/08 08:24:57;;;;;;;1.52;0.70;;;;;;;;;;4906927;29;20452;-65
2023/12/08 08:27:25;;;;;;;1.20;0.70;;;;;;;;;;4900070;29;20040;-65
2023/12/08 08:29:51;;;;;;;1.20;0.60;;;;;;;;;;4902360;29;20056;-63
2023/12/08 08:32:18;;;;;;;1.00;0.52;;;;;;;;;;4905918;29;20102;-62
2023/12/08 08:34:44;;;;;;;4.05;1.00;;;;;;;;;;4910263;29;20044;-62
2023/12/08 08:37:10;;;;;;;1.77;0.70;;;;;;;;;;4907001;29;20048;-63
2023/12/08 08:39:36;;;;;;;2.97;1.08;;;;;;;;;;4901435;29;20203;-67
2023/12/08 08:42:03;;;;;;;2.83;1.25;;;;;;;;;;4919989;29;20403;-64
2023/12/08 08:44:29;;;;;;;2.75;1.50;;;;;;;;;;4917757;29;20056;-64
2023/12/08 08:46:57;;;;;;;2.17;0.90;;;;;;;;;;4903868;29;20044;-63
2023/12/08 08:49:23;;;;;;;4.88;1.40;;;;;;;;;;4906429;29;20525;-62
2023/12/08 08:51:49;;;;;;;2.70;1.17;;;;;;;;;;4911711;29;20044;-64
2023/12/08 08:54:16;;;;;;;3.33;1.40;;;;;;;;;;4911627;29;20052;-63
2023/12/08 08:56:44;;;;;;;1.27;0.80;;;;;;;;;;4909792;29;20067;-61
2023/12/08 08:59:10;;;;;;;6.05;1.02;;;;;;;;;;4899408;29;20416;-62
2023/12/08 09:01:38;;;;;;;1.80;0.82;;;;;;;;;;4904604;29;20544;-69
2023/12/08 09:04:05;;;;;;;0.95;0.75;;;;;;;;;;4909740;29;20147;-64
2023/12/08 09:06:31;;;;;;;1.52;0.88;;;;;;;;;;4904369;29;20048;-62
2023/12/08 09:08:58;;;;;;;3.70;1.30;;;;;;;;;;4911168;29;20060;-63
2023/12/08 09:11:26;;;;;;;2.15;1.02;;;;;;;;;;4898703;29;20057;-63
2023/12/08 09:13:52;;;;;;;3.53;1.20;;;;;;;;;;4898772;29;20115;-63
2023/12/08 09:16:20;;;;;;;4.80;1.10;;;;;;;;;;4903577;29;20483;-63
2023/12/08 09:18:46;;;;;;;2.72;1.20;;;;;;;;;;4911779;29;20052;-62
2023/12/08 09:21:14;;;;;;;3.30;1.20;;;;;;;;;;4912928;29;20056;-65
2023/12/08 09:23:39;;;;;;;7.32;1.70;;;;;;;;;;4899783;29;20072;-66
2023/12/08 09:26:06;;;;;;;2.70;1.20;;;;;;;;;;4908925;29;20159;-63
2023/12/08 09:28:34;;;;;;;2.08;1.13;;;;;;;;;;4908293;29;20948;-62
2023/12/08 09:31:01;;;;;;;3.08;1.20;;;;;;;;;;4925310;29;20057;-63
2023/12/08 09:33:28;;;;;;;3.55;1.30;;;;;;;;;;4910304;29;20469;-64
2023/12/08 09:35:57;;;;;;;2.70;1.30;;;;;;;;;;4914762;29;20065;-64
2023/12/08 09:38:24;;;;;;;2.63;1.15;;;;;;;;;;4921237;29;20056;-63
2023/12/08 09:40:50;;;;;;;5.43;1.38;;;;;;;;;;4916086;29;20135;-67
2023/12/08 09:43:42;;;;;;;4.22;1.05;;;;;;;;;;4907185;29;20080;-65
2023/12/08 09:46:09;;;;;;;1.95;1.00;;;;;;;;;;4917348;29;20056;-63
2023/12/08 09:48:40;;;;;;;1.95;0.80;;;;;;;;;;4898727;29;20082;-65
2023/12/08 09:51:07;;;;;;;1.52;0.60;;;;;;;;;;4907404;29;20052;-64
2023/12/08 09:53:35;;;;;;;1.10;0.80;;;;;;;;;;4900549;29;20080;-65
2023/12/08 09:56:02;;;;;;;1.75;0.80;;;;;;;;;;4903000;29;20045;-62
2023/12/08 09:59:07;;;;;;;3.80;1.10;;;;;;;;;;4901312;29;20052;-62
2023/12/08 10:02:08;;;;;;;2.88;0.98;;;;;;;;;;4913057;29;20047;-61
2023/12/08 10:04:35;;;;;;;3.45;0.93;;;;;;;;;;4908863;29;20056;-61
2023/12/08 10:07:05;;;;;;;2.42;1.00;;;;;;;;;;4905304;29;20053;-63
2023/12/08 10:09:33;;;;;;;1.90;0.70;;;;;;;;;;4896554;29;20084;-64
2023/12/08 10:11:59;;;;;;;4.05;0.95;;;;;;;;;;4914268;29;20079;-62
2023/12/08 10:15:11;;;;;;;2.03;0.88;;;;;;;;;;4910891;29;20115;-64
2023/12/08 10:18:23;;;;;;;1.27;0.55;;;;;;;;;;4911268;29;20072;-64
2023/12/08 10:21:14;;;;;;;1.90;1.00;;;;;;;;;;4909642;29;20103;-65
2023/12/08 10:23:44;;;;;;;2.08;1.00;;;;;;;;;;4898384;29;20072;-63
2023/12/08 10:26:17;;;;;;;4.55;1.30;;;;;;;;;;4911682;29;20060;-61
2023/12/08 10:28:44;;;;;;;1.90;0.88;;;;;;;;;;4909083;29;20143;-64
2023/12/08 10:31:10;;;;;;;2.35;0.82;;;;;;;;;;4902565;29;20128;-63
2023/12/08 10:33:36;;;;;;;2.63;0.90;;;;;;;;;;4897547;29;20156;-63
2023/12/08 10:36:03;;;;;;;1.38;0.68;;;;;;;;;;4914312;29;20408;-63
2023/12/08 10:38:30;;;;;;;2.63;0.95;;;;;;;;;;4908950;29;20077;-64
2023/12/08 10:40:56;;;;;;;2.63;1.08;;;;;;;;;;4908229;29;20135;-63
2023/12/08 10:43:23;;;;;;;3.75;1.00;;;;;;;;;;4904802;29;20563;-64
2023/12/08 10:45:56;;;;;;;1.73;0.93;;;;;;;;;;4912556;29;20111;-63
2023/12/08 10:48:24;;;;;;;6.80;1.02;;;;;;;;;;4912292;29;20059;-67
2023/12/08 10:50:52;;;;;;;2.33;0.73;;;;;;;;;;4905438;29;20044;-62
2023/12/08 10:53:20;;;;;;;3.13;0.73;;;;;;;;;;4910268;29;20044;-61
2023/12/08 10:56:04;;;;;;;3.47;1.05;;;;;;;;;;4904822;29;20130;-65
2023/12/08 10:58:34;;;;;;;3.10;1.05;;;;;;;;;;4903899;29;20056;-65
2023/12/08 11:01:06;;;;;;;4.63;0.95;;;;;;;;;;4907804;29;20063;-64
2023/12/08 11:03:33;;;;;;;2.45;0.98;;;;;;;;;;4903867;29;20059;-63
2023/12/08 11:06:09;;;;;;;5.10;0.95;;;;;;;;;;4897636;29;20068;-63
2023/12/08 11:08:40;;;;;;;3.20;0.95;;;;;;;;;;4906736;29;20521;-63
2023/12/08 11:11:08;;;;;;;1.92;0.60;;;;;;;;;;4904528;29;20052;-65
2023/12/08 11:13:39;;;;;;;4.75;0.90;;;;;;;;;;4898125;29;20062;-64
2023/12/08 11:16:40;;;;;;;3.28;1.00;;;;;;;;;;4898410;29;20060;-63
2023/12/08 11:19:08;;;;;;;2.63;1.08;;;;;;;;;;4899017;29;20129;-63
2023/12/08 11:21:35;;;;;;;6.72;1.20;;;;;;;;;;4904395;29;20067;-61
2023/12/08 11:24:01;;;;;;;3.03;0.93;;;;;;;;;;4907496;29;20052;-64
2023/12/08 11:26:52;;;;;;;2.13;0.70;;;;;;;;;;4903668;29;20111;-67
2023/12/08 11:29:34;;;;;;;5.35;0.80;;;;;;;;;;4901780;29;20131;-64
2023/12/08 11:32:18;;;;;;;4.90;1.00;;;;;;;;;;4900647;29;20088;-63
2023/12/08 11:35:07;;;;;;;2.10;1.00;;;;;;;;;;4903439;29;20056;-61
2023/12/08 11:37:34;;;;;;;1.80;0.93;;;;;;;;;;4900874;29;20053;-64
2023/12/08 11:40:11;;;;;;;4.05;0.95;;;;;;;;;;4888600;29;20314;-63
2023/12/08 11:42:43;;;;;;;4.57;1.20;;;;;;;;;;4897822;29;20060;-62
2023/12/08 11:45:10;;;;;;;5.57;1.20;;;;;;;;;;4903843;29;20052;-63
2023/12/08 11:47:37;;;;;;;4.07;1.40;;;;;;;;;;4909006;29;20408;-63
2023/12/08 11:50:06;;;;;;;5.20;1.00;;;;;;;;;;4908819;29;20071;-61
2023/12/08 11:52:34;;;;;;;3.85;1.30;;;;;;;;;;4901370;29;20060;-63
2023/12/08 11:55:07;;;;;;;2.95;1.38;;;;;;;;;;4906530;29;20049;-63
2023/12/08 11:57:38;;;;;;;3.50;1.10;;;;;;;;;;4903867;29;20052;-64
2023/12/08 12:00:11;;;;;;;3.83;1.42;;;;;;;;;;4902604;29;20416;-64
2023/12/08 12:02:41;;;;;;;4.35;1.05;;;;;;;;;;4901858;29;20048;-64
2023/12/08 12:05:09;;;;;;;2.17;1.10;;;;;;;;;;4904224;29;20083;-65
2023/12/08 12:07:38;;;;;;;5.30;1.10;;;;;;;;;;4901499;29;20063;-63
2023/12/08 12:10:14;;;;;;;3.95;1.10;;;;;;;;;;4899190;29;20479;-62
2023/12/08 12:12:42;;;;;;;2.67;0.70;;;;;;;;;;4896310;29;20060;-62
2023/12/08 12:15:11;;;;;;;4.78;0.95;;;;;;;;;;4904112;29;20083;-63
2023/12/08 12:17:39;;;;;;;6.75;1.10;;;;;;;;;;4898292;29;20083;-64
2023/12/08 12:20:06;;;;;;;3.90;0.88;;;;;;;;;;4911723;29;20044;-67
2023/12/08 12:22:35;;;;;;;4.05;1.10;;;;;;;;;;4913252;29;20469;-65
2023/12/08 12:25:02;;;;;;;2.17;0.80;;;;;;;;;;4904212;29;20063;-64
2023/12/08 12:27:28;;;;;;;2.05;0.95;;;;;;;;;;4922150;29;20060;-62
2023/12/08 12:29:54;;;;;;;2.17;0.88;;;;;;;;;;4901953;29;20048;-63
2023/12/08 12:32:22;;;;;;;2.22;0.93;;;;;;;;;;4908049;29;20058;-63
2023/12/08 12:34:47;;;;;;;2.75;0.90;;;;;;;;;;4910710;29;20068;-64
2023/12/08 12:37:15;;;;;;;3.75;1.23;;;;;;;;;;4912370;29;20457;-63
2023/12/08 12:39:45;;;;;;;2.45;1.23;;;;;;;;;;4905509;29;20049;-64
2023/12/08 12:42:13;;;;;;;3.90;1.25;;;;;;;;;;4926661;29;20512;-69
2023/12/08 12:44:44;;;;;;;3.13;1.02;;;;;;;;;;4909164;29;20056;-62
2023/12/08 12:47:12;;;;;;;1.55;1.00;;;;;;;;;;4911895;29;20056;-64
2023/12/08 12:50:05;;;;;;;3.08;1.13;;;;;;;;;;4904851;29;20080;-65
2023/12/08 12:53:14;;;;;;;2.65;0.93;;;;;;;;;;4906821;29;20066;-63
2023/12/08 12:56:53;;;;;;;3.55;1.25;;;;;;;;;;4906501;29;20063;-63
2023/12/08 13:00:34;;;;;;;2.60;1.67;;;;;;;;;;4906122;29;20521;-62
2023/12/08 13:04:15;;;;;;;3.53;1.25;;;;;;;;;;4915751;29;20113;-64
2023/12/08 13:07:55;;;;;;;2.63;1.00;;;;;;;;;;4899644;29;20450;-62
2023/12/08 13:11:37;;;;;;;3.83;1.30;;;;;;;;;;4912570;29;20041;-63
2023/12/08 13:15:21;;;;;;;3.95;1.10;;;;;;;;;;4908539;29;20603;-63
2023/12/08 13:19:04;;;;;;;5.88;1.30;;;;;;;;;;4897663;29;20052;-63
2023/12/08 13:21:33;;;;;;;4.93;1.45;;;;;;;;;;4904372;29;20100;-63
2023/12/08 13:24:01;;;;;;;2.20;1.13;;;;;;;;;;4899074;29;20512;-64
2023/12/08 13:26:27;;;;;;;1.67;1.00;;;;;;;;;;4902674;29;20062;-64
2023/12/08 13:28:53;;;;;;;1.98;1.08;;;;;;;;;;4909515;29;20534;-64
2023/12/08 13:31:22;;;;;;;3.15;1.17;;;;;;;;;;4897885;29;20053;-63
2023/12/08 13:33:49;;;;;;;2.53;1.10;;;;;;;;;;4900526;29;20500;-62
2023/12/08 13:36:17;;;;;;;2.88;0.80;;;;;;;;;;4905192;29;20064;-64
2023/12/08 13:38:42;;;;;;;3.55;1.17;;;;;;;;;;4907919;29;20104;-64
2023/12/08 13:41:09;;;;;;;2.90;1.20;;;;;;;;;;4898497;29;20060;-63
2023/12/08 13:43:35;;;;;;;2.45;1.25;;;;;;;;;;4904193;29;20127;-63
2023/12/08 13:46:02;;;;;;;2.40;0.90;;;;;;;;;;4907983;29;20056;-64
2023/12/08 13:48:29;;;;;;;2.10;1.20;;;;;;;;;;4915735;29;20060;-62
2023/12/08 13:50:55;;;;;;;4.57;1.40;;;;;;;;;;4904810;29;20452;-64
2023/12/08 13:53:21;;;;;;;2.90;1.33;;;;;;;;;;4905636;29;20353;-63
2023/12/08 13:55:47;;;;;;;4.07;1.33;;;;;;;;;;4910859;29;20104;-64
2023/12/08 13:58:13;;;;;;;3.13;1.48;;;;;;;;;;4920423;29;20142;-64
2023/12/08 14:00:39;;;;;;;2.65;1.48;;;;;;;;;;4907556;29;20051;-63
2023/12/08 14:03:06;;;;;;;3.35;1.50;;;;;;;;;;4916111;29;20048;-67
2023/12/08 14:05:32;;;;;;;3.60;1.17;;;;;;;;;;4910100;29;20087;-69
2023/12/08 14:07:59;;;;;;;2.50;0.88;;;;;;;;;;4905366;29;20603;-67
2023/12/08 14:10:27;;;;;;;6.28;1.40;;;;;;;;;;4896247;29;20099;-64
2023/12/08 14:12:53;;;;;;;1.80;1.10;;;;;;;;;;4905681;29;20049;-64
2023/12/08 14:15:21;;;;;;;2.17;0.90;;;;;;;;;;4915639;29;20059;-64
2023/12/08 14:17:48;;;;;;;1.67;0.88;;;;;;;;;;4910576;29;20056;-66
2023/12/08 14:20:15;;;;;;;2.38;0.90;;;;;;;;;;4900252;29;20056;-64
2023/12/08 14:22:42;;;;;;;2.28;1.00;;;;;;;;;;4897455;29;20060;-64
2023/12/08 14:25:08;;;;;;;2.10;1.00;;;;;;;;;;4899862;29;20055;-63
2023/12/08 14:27:34;;;;;;;5.85;1.17;;;;;;;;;;4911639;29;20060;-64
2023/12/08 14:30:00;;;;;;;1.15;0.80;;;;;;;;;;4907300;29;20056;-64
2023/12/08 14:32:26;;;;;;;1.77;0.70;;;;;;;;;;4900087;29;20566;-66
2023/12/08 14:34:54;;;;;;;2.70;0.90;;;;;;;;;;4897896;29;20068;-64
2023/12/08 14:37:22;;;;;;;2.33;0.88;;;;;;;;;;4909710;29;20048;-63
2023/12/08 14:39:50;;;;;;;1.15;0.60;;;;;;;;;;4903178;29;20055;-64
2023/12/08 14:42:15;;;;;;;1.73;0.68;;;;;;;;;;4903265;29;20053;-64
2023/12/08 14:44:44;;;;;;;7.10;1.30;;;;;;;;;;4907812;29;20390;-64
2023/12/08 14:47:10;;;;;;;2.38;1.20;;;;;;;;;;4917885;29;20467;-63
2023/12/08 14:49:37;;;;;;;3.05;0.75;;;;;;;;;;4896435;29;20757;-64
2023/12/08 14:52:03;;;;;;;2.90;1.08;;;;;;;;;;4894291;29;20107;-63
2023/12/08 14:54:35;;;;;;;2.28;1.30;;;;;;;;;;4903156;29;20040;-64
2023/12/08 14:57:01;;;;;;;3.10;0.70;;;;;;;;;;4901207;29;20147;-65
2023/12/08 14:59:29;;;;;;;1.27;0.73;;;;;;;;;;4901289;29;20556;-65
2023/12/08 15:01:56;;;;;;;1.00;0.73;;;;;;;;;;4909262;29;20515;-66
2023/12/08 15:04:24;;;;;;;1.83;0.85;;;;;;;;;;4909001;29;20067;-63
2023/12/08 15:06:50;;;;;;;1.23;0.80;;;;;;;;;;4902146;29;20496;-63
2023/12/08 15:09:16;;;;;;;1.38;0.70;;;;;;;;;;4900271;29;20044;-65
2023/12/08 15:11:42;;;;;;;2.38;1.00;;;;;;;;;;4906802;29;20052;-64
2023/12/08 15:14:09;;;;;;;5.50;1.60;;;;;;;;;;4909471;29;20591;-63
2023/12/08 15:16:35;;;;;;;2.22;1.25;;;;;;;;;;4907039;29;20077;-63
2023/12/08 15:19:02;;;;;;;3.85;1.20;;;;;;;;;;4908862;29;20172;-66
2023/12/08 15:21:28;;;;;;;2.72;1.00;;;;;;;;;;4910311;29;20457;-64
2023/12/08 15:23:55;;;;;;;3.17;1.30;;;;;;;;;;4905022;29;20060;-63
2023/12/08 15:26:22;;;;;;;1.38;0.73;;;;;;;;;;4901951;29;20518;-65
2023/12/08 15:28:51;;;;;;;1.35;0.65;;;;;;;;;;4909094;29;20052;-62
2023/12/08 15:31:17;;;;;;;1.95;0.95;;;;;;;;;;4908969;29;20128;-64
2023/12/08 15:33:43;;;;;;;2.67;1.10;;;;;;;;;;4908045;29;20119;-63
2023/12/08 15:36:13;;;;;;;2.55;0.98;;;;;;;;;;4912773;29;20044;-62
2023/12/08 15:38:42;;;;;;;3.13;0.77;;;;;;;;;;4897464;29;20056;-64
2023/12/08 15:41:10;;;;;;;2.45;0.85;;;;;;;;;;4898243;29;20152;-66
2023/12/08 15:43:36;;;;;;;4.90;1.13;;;;;;;;;;4915793;29;20055;-67
2023/12/08 15:46:04;;;;;;;3.03;1.00;;;;;;;;;;4888542;29;20091;-65